createdAt,value
2023-01-31T00:00:20.941Z,100.00
2023-01-31T00:02:50.771Z,100.00
2023-01-31T00:05:20.868Z,100.00
2023-01-31T00:07:50.672Z,100.00
2023-01-31T00:10:20.685Z,100.00
2023-01-31T00:12:52.907Z,100.00
2023-01-31T00:15:22.684Z,100.00
2023-01-31T00:17:52.471Z,100.00
2023-01-31T00:20:22.292Z,100.00
2023-01-31T00:22:51.885Z,100.00
2023-01-31T00:25:21.882Z,100.00
2023-01-31T00:27:54.303Z,100.00
2023-01-31T00:30:24.161Z,100.00
2023-01-31T00:32:53.787Z,100.00
2023-01-31T00:35:23.364Z,100.00
2023-01-31T00:37:53.004Z,100.00
2023-01-31T00:40:22.727Z,100.00
2023-01-31T00:42:54.910Z,100.00
2023-01-31T00:45:24.567Z,100.00
2023-01-31T00:47:54.501Z,100.00
2023-01-31T00:50:24.207Z,100.00
2023-01-31T00:52:53.869Z,100.00
2023-01-31T00:55:23.496Z,100.00
2023-01-31T00:57:55.730Z,100.00
2023-01-31T01:00:26.991Z,100.00
2023-01-31T01:02:56.684Z,100.00
2023-01-31T01:05:26.674Z,100.00
2023-01-31T01:07:56.352Z,100.00
2023-01-31T01:10:26.777Z,100.00
2023-01-31T01:12:58.985Z,100.00
2023-01-31T01:15:28.642Z,100.00
2023-01-31T01:17:58.416Z,100.00
2023-01-31T01:20:28.099Z,100.00
2023-01-31T01:22:57.826Z,100.00
2023-01-31T01:25:27.531Z,100.00
2023-01-31T01:27:59.785Z,100.00
2023-01-31T01:30:30.063Z,100.00
2023-01-31T01:32:59.730Z,100.00
2023-01-31T01:35:29.368Z,100.00
2023-01-31T01:37:58.971Z,100.00
2023-01-31T01:40:38.071Z,100.00
2023-01-31T01:43:12.916Z,100.00
2023-01-31T01:45:42.564Z,100.00
2023-01-31T01:48:18.363Z,100.00
2023-01-31T01:50:51.952Z,100.00
2023-01-31T01:53:24.523Z,100.00
2023-01-31T01:55:57.201Z,100.00
2023-01-31T01:58:33.773Z,100.00
2023-01-31T02:01:04.257Z,100.00
2023-01-31T02:03:34.006Z,100.00
2023-01-31T02:06:07.536Z,100.00
2023-01-31T02:08:39.466Z,100.00
2023-01-31T02:11:16.996Z,100.00
2023-01-31T02:13:50.921Z,100.00
2023-01-31T02:16:21.108Z,100.00
2023-01-31T02:18:51.498Z,100.00
2023-01-31T02:22:07.629Z,100.00
2023-01-31T02:25:22.970Z,100.00
2023-01-31T02:28:19.568Z,100.00
2023-01-31T02:31:13.718Z,100.00
2023-01-31T02:33:55.519Z,100.00
2023-01-31T02:36:36.829Z,100.00
2023-01-31T02:39:17.665Z,100.00
2023-01-31T02:41:57.911Z,100.00
2023-01-31T02:44:44.535Z,100.00
2023-01-31T02:47:27.051Z,100.00
2023-01-31T02:50:04.630Z,100.00
2023-01-31T02:52:43.533Z,100.00
2023-01-31T02:55:32.367Z,100.00
2023-01-31T02:58:04.802Z,100.00
2023-01-31T03:00:36.947Z,100.00
2023-01-31T03:03:08.968Z,100.00
2023-01-31T03:05:42.820Z,100.00
2023-01-31T03:08:16.329Z,100.00
2023-01-31T03:11:02.985Z,100.00
2023-01-31T03:13:39.917Z,100.00
2023-01-31T03:16:35.745Z,100.00
2023-01-31T03:19:13.861Z,100.00
2023-01-31T03:21:53.172Z,100.00
2023-01-31T03:24:26.226Z,100.00
2023-01-31T03:26:58.475Z,100.00
2023-01-31T03:29:31.365Z,100.00
2023-01-31T03:32:06.206Z,100.00
2023-01-31T03:34:36.677Z,100.00
2023-01-31T03:37:15.602Z,100.00
2023-01-31T03:39:57.135Z,99.78
2023-01-31T03:42:34.399Z,99.94
2023-01-31T03:45:10.139Z,99.99
2023-01-31T03:47:42.385Z,100.00
2023-01-31T03:50:18.814Z,100.00
2023-01-31T03:52:57.686Z,99.39
2023-01-31T03:55:33.928Z,100.00
2023-01-31T03:58:08.831Z,100.00
2023-01-31T04:00:41.976Z,100.00
2023-01-31T04:03:16.935Z,100.00
2023-01-31T04:05:49.200Z,100.00
2023-01-31T04:08:21.938Z,100.00
2023-01-31T04:11:01.725Z,100.00
2023-01-31T04:13:31.440Z,100.00
2023-01-31T04:16:01.112Z,100.00
2023-01-31T04:18:30.842Z,100.00
2023-01-31T04:21:00.527Z,100.00
2023-01-31T04:23:33.368Z,100.00
2023-01-31T04:26:03.133Z,100.00
2023-01-31T04:28:33.142Z,100.00
2023-01-31T04:31:02.903Z,100.00
2023-01-31T04:33:33.079Z,100.00
2023-01-31T04:36:02.780Z,100.00
2023-01-31T04:38:35.224Z,100.00
2023-01-31T04:41:05.014Z,100.00
2023-01-31T04:43:34.671Z,100.00
2023-01-31T04:46:04.423Z,100.00
2023-01-31T04:48:34.104Z,100.00
2023-01-31T04:51:03.847Z,100.00
2023-01-31T04:53:36.356Z,100.00
2023-01-31T04:56:06.790Z,100.00
2023-01-31T04:58:36.811Z,100.00
2023-01-31T05:01:06.512Z,100.00
2023-01-31T05:03:36.489Z,100.00
2023-01-31T05:06:06.916Z,100.00
2023-01-31T05:08:39.149Z,100.00
2023-01-31T05:11:09.735Z,100.00
2023-01-31T05:13:40.897Z,100.00
2023-01-31T05:16:11.684Z,100.00
2023-01-31T05:18:41.823Z,100.00
2023-01-31T05:21:11.519Z,100.00
2023-01-31T05:23:43.772Z,100.00
2023-01-31T05:26:13.812Z,100.00
2023-01-31T05:28:43.475Z,100.00
2023-01-31T05:31:13.432Z,100.00
2023-01-31T05:33:43.176Z,100.00
2023-01-31T05:36:12.837Z,100.00
2023-01-31T05:38:45.458Z,100.00
2023-01-31T05:41:15.106Z,100.00
2023-01-31T05:43:44.724Z,100.00
2023-01-31T05:46:14.341Z,100.00
2023-01-31T05:48:43.939Z,100.00
2023-01-31T05:51:13.582Z,100.00
2023-01-31T05:53:45.830Z,100.00
2023-01-31T05:56:16.686Z,100.00
2023-01-31T05:58:50.436Z,100.00
2023-01-31T06:01:22.100Z,100.00
2023-01-31T06:03:52.811Z,100.00
2023-01-31T06:06:23.287Z,100.00
2023-01-31T06:08:55.491Z,100.00
2023-01-31T06:11:25.360Z,100.00
2023-01-31T06:13:57.745Z,100.00
2023-01-31T06:16:28.581Z,100.00
2023-01-31T06:18:58.316Z,100.00
2023-01-31T06:21:28.086Z,100.00
2023-01-31T06:24:00.344Z,100.00
2023-01-31T06:26:30.609Z,100.00
2023-01-31T06:29:00.825Z,100.00
2023-01-31T06:31:30.941Z,100.00
2023-01-31T06:34:00.612Z,100.00
2023-01-31T06:36:30.500Z,100.00
2023-01-31T06:39:04.144Z,100.00
2023-01-31T06:41:33.773Z,100.00
2023-01-31T06:44:03.505Z,100.00
2023-01-31T06:46:33.475Z,100.00
2023-01-31T06:49:03.180Z,100.00
2023-01-31T06:51:33.055Z,100.00
2023-01-31T06:54:05.377Z,100.00
2023-01-31T06:56:35.005Z,100.00
2023-01-31T06:59:04.820Z,100.00
2023-01-31T07:01:34.626Z,100.00
2023-01-31T07:04:04.478Z,100.00
2023-01-31T07:06:34.123Z,100.00
2023-01-31T07:09:07.440Z,100.00
2023-01-31T07:11:37.206Z,100.00
2023-01-31T07:14:06.874Z,100.00
2023-01-31T07:16:38.211Z,100.00
2023-01-31T07:19:08.176Z,100.00
2023-01-31T07:21:38.225Z,100.00
2023-01-31T07:24:11.438Z,100.00
2023-01-31T07:26:41.157Z,100.00
2023-01-31T07:29:12.139Z,100.00
2023-01-31T07:31:41.910Z,100.00
2023-01-31T07:34:11.536Z,100.00
2023-01-31T07:36:41.257Z,100.00
2023-01-31T07:39:13.743Z,100.00
2023-01-31T07:41:43.345Z,100.00
2023-01-31T07:44:13.263Z,100.00
2023-01-31T07:46:43.609Z,100.00
2023-01-31T07:49:14.300Z,100.00
2023-01-31T07:51:43.926Z,100.00
2023-01-31T07:54:16.257Z,100.00
2023-01-31T07:56:45.929Z,100.00
2023-01-31T07:59:17.266Z,100.00
2023-01-31T08:01:59.465Z,100.00
2023-01-31T08:04:29.468Z,100.00
2023-01-31T08:07:03.102Z,100.00
2023-01-31T08:09:35.517Z,100.00
2023-01-31T08:12:05.133Z,100.00
2023-01-31T08:14:34.782Z,100.00
2023-01-31T08:17:04.469Z,100.00
2023-01-31T08:19:34.420Z,100.00
2023-01-31T08:22:04.634Z,100.00
2023-01-31T08:24:36.883Z,100.00
2023-01-31T08:27:06.762Z,100.00
2023-01-31T08:29:36.495Z,100.00
2023-01-31T08:32:06.168Z,100.00
2023-01-31T08:34:35.820Z,100.00
2023-01-31T08:37:05.517Z,100.00
2023-01-31T08:39:37.754Z,100.00
2023-01-31T08:42:07.462Z,100.00
2023-01-31T08:44:38.322Z,100.00
2023-01-31T08:47:08.036Z,100.00
2023-01-31T08:49:39.222Z,100.00
2023-01-31T08:52:08.902Z,100.00
2023-01-31T08:54:41.325Z,100.00
2023-01-31T08:57:10.974Z,100.00
2023-01-31T08:59:40.668Z,100.00
2023-01-31T09:02:12.623Z,100.00
2023-01-31T09:04:42.389Z,100.00
2023-01-31T09:07:11.998Z,100.00
2023-01-31T09:09:44.159Z,100.00
2023-01-31T09:12:13.776Z,100.00
2023-01-31T09:14:43.428Z,100.00
2023-01-31T09:17:13.465Z,100.00
2023-01-31T09:19:46.000Z,100.00
2023-01-31T09:22:15.641Z,100.00
2023-01-31T09:24:48.173Z,100.00
2023-01-31T09:27:18.320Z,100.00
2023-01-31T09:29:47.976Z,100.00
2023-01-31T09:32:17.599Z,100.00
2023-01-31T09:34:49.070Z,100.00
2023-01-31T09:37:18.999Z,100.00
2023-01-31T09:39:51.284Z,100.00
2023-01-31T09:42:26.513Z,100.00
2023-01-31T09:45:02.984Z,100.00
2023-01-31T09:47:37.018Z,100.00
2023-01-31T09:50:11.108Z,100.00
2023-01-31T09:52:41.331Z,100.00
2023-01-31T09:55:19.122Z,100.00
2023-01-31T09:57:57.279Z,100.00
2023-01-31T10:00:34.221Z,100.00
2023-01-31T10:03:33.641Z,100.00
2023-01-31T10:06:08.723Z,100.00
2023-01-31T10:08:47.154Z,100.00
2023-01-31T10:11:24.780Z,100.00
2023-01-31T10:13:58.967Z,100.00
2023-01-31T10:16:36.526Z,100.00
2023-01-31T10:19:10.731Z,100.00
2023-01-31T10:21:45.069Z,100.00
2023-01-31T10:24:18.976Z,100.00
2023-01-31T10:26:54.017Z,100.00
2023-01-31T10:29:30.742Z,100.00
2023-01-31T10:32:05.247Z,100.00
2023-01-31T10:34:41.770Z,100.00
2023-01-31T10:37:17.242Z,100.00
2023-01-31T10:39:50.971Z,100.00
2023-01-31T10:42:32.699Z,100.00
2023-01-31T10:45:06.259Z,100.00
2023-01-31T10:47:38.339Z,100.00
2023-01-31T10:50:17.416Z,100.00
2023-01-31T10:52:57.924Z,100.00
2023-01-31T10:55:46.667Z,100.00
2023-01-31T10:58:22.636Z,100.00
2023-01-31T11:00:53.367Z,100.00
2023-01-31T11:03:23.305Z,100.00
2023-01-31T11:05:55.071Z,100.00
2023-01-31T11:08:32.522Z,100.00
2023-01-31T11:11:08.950Z,100.00
2023-01-31T11:13:41.884Z,100.00
2023-01-31T11:16:14.807Z,100.00
2023-01-31T11:18:48.949Z,100.00
2023-01-31T11:21:24.835Z,100.00
2023-01-31T11:23:58.282Z,100.00
2023-01-31T11:26:31.543Z,100.00
2023-01-31T11:29:04.877Z,100.00
2023-01-31T11:31:39.329Z,100.00
2023-01-31T11:34:23.168Z,100.00
2023-01-31T11:36:53.446Z,100.00
2023-01-31T11:39:31.790Z,100.00
2023-01-31T11:42:09.937Z,100.00
2023-01-31T11:44:59.887Z,100.00
2023-01-31T11:47:42.751Z,100.00
2023-01-31T11:50:24.043Z,100.00
2023-01-31T11:53:01.357Z,100.00
2023-01-31T11:55:39.307Z,100.00
2023-01-31T11:58:20.449Z,100.00
2023-01-31T12:00:59.521Z,100.00
2023-01-31T12:03:30.790Z,100.00
2023-01-31T12:06:05.277Z,100.00
2023-01-31T12:08:38.366Z,100.00
2023-01-31T12:11:09.833Z,100.00
2023-01-31T12:13:49.307Z,100.00
2023-01-31T12:16:25.627Z,100.00
2023-01-31T12:19:15.454Z,100.00
2023-01-31T12:22:02.915Z,100.00
2023-01-31T12:24:46.847Z,100.00
2023-01-31T12:27:28.863Z,100.00
2023-01-31T12:30:22.954Z,100.00
2023-01-31T12:33:32.235Z,100.00
2023-01-31T12:36:15.532Z,100.00
2023-01-31T12:39:00.134Z,100.00
2023-01-31T12:41:36.124Z,100.00
2023-01-31T12:44:44.842Z,100.00
2023-01-31T12:47:34.842Z,100.00
2023-01-31T12:50:28.811Z,100.00
2023-01-31T12:53:20.945Z,100.00
2023-01-31T12:56:01.770Z,100.00
2023-01-31T12:58:46.047Z,100.00
2023-01-31T13:01:20.880Z,100.00
2023-01-31T13:04:15.225Z,100.00
2023-01-31T13:06:53.605Z,100.00
2023-01-31T13:09:26.070Z,100.00
2023-01-31T13:12:02.024Z,100.00
2023-01-31T13:14:35.786Z,100.00
2023-01-31T13:17:08.763Z,100.00
2023-01-31T13:19:44.640Z,100.00
2023-01-31T13:22:23.250Z,100.00
2023-01-31T13:25:02.086Z,100.00
2023-01-31T13:27:38.115Z,100.00
2023-01-31T13:30:17.430Z,100.00
2023-01-31T13:32:51.362Z,100.00
2023-01-31T13:35:27.061Z,100.00
2023-01-31T13:38:03.394Z,100.00
2023-01-31T13:40:37.643Z,100.00
2023-01-31T13:43:15.949Z,100.00
2023-01-31T13:45:52.742Z,100.00
2023-01-31T13:48:29.152Z,100.00
2023-01-31T13:51:04.157Z,100.00
2023-01-31T13:53:39.593Z,100.00
2023-01-31T13:56:14.096Z,100.00
2023-01-31T13:58:46.163Z,100.00
2023-01-31T14:01:23.075Z,100.00
2023-01-31T14:04:25.328Z,100.00
2023-01-31T14:07:01.991Z,100.00
2023-01-31T14:09:37.419Z,100.00
2023-01-31T14:12:35.207Z,100.00
2023-01-31T14:15:13.037Z,100.00
2023-01-31T14:18:02.761Z,100.00
2023-01-31T14:20:33.712Z,100.00
2023-01-31T14:23:35.141Z,100.00
2023-01-31T14:26:38.820Z,100.00
2023-01-31T14:29:12.281Z,100.00
2023-01-31T14:31:43.048Z,100.00
2023-01-31T14:34:20.295Z,100.00
2023-01-31T14:37:03.836Z,100.00
2023-01-31T14:39:58.561Z,100.00
2023-01-31T14:42:53.604Z,100.00
2023-01-31T14:45:52.177Z,100.00
2023-01-31T14:48:38.485Z,100.00
2023-01-31T14:51:25.311Z,100.00
2023-01-31T14:54:15.749Z,100.00
2023-01-31T14:57:04.645Z,100.00
2023-01-31T14:59:41.273Z,100.00
2023-01-31T15:02:39.890Z,100.00
2023-01-31T15:05:15.264Z,100.00
2023-01-31T15:08:01.669Z,100.00
2023-01-31T15:10:56.585Z,100.00
2023-01-31T15:13:47.109Z,100.00
2023-01-31T15:16:28.527Z,100.00
2023-01-31T15:19:09.195Z,100.00
2023-01-31T15:21:44.739Z,100.00
2023-01-31T15:27:28.583Z,100.00
2023-01-31T15:30:06.822Z,100.00
2023-01-31T15:32:55.203Z,100.00
2023-01-31T15:35:30.568Z,100.00
2023-01-31T15:38:04.370Z,100.00
2023-01-31T15:40:34.282Z,100.00
2023-01-31T15:43:19.769Z,100.00
2023-01-31T15:45:52.492Z,100.00
2023-01-31T15:48:25.765Z,100.00
2023-01-31T15:50:57.688Z,100.00
2023-01-31T15:53:31.420Z,100.00
2023-01-31T15:56:05.305Z,100.00
2023-01-31T15:58:37.503Z,100.00
2023-01-31T16:01:08.108Z,100.00
2023-01-31T16:03:44.911Z,100.00
2023-01-31T16:06:25.503Z,100.00
2023-01-31T16:09:04.302Z,100.00
2023-01-31T16:11:36.368Z,100.00
2023-01-31T16:14:08.716Z,100.00
2023-01-31T16:16:39.327Z,100.00
2023-01-31T16:19:30.662Z,100.00
2023-01-31T16:22:01.182Z,100.00
2023-01-31T16:24:32.178Z,100.00
2023-01-31T16:27:04.108Z,100.00
2023-01-31T16:29:41.894Z,100.00
2023-01-31T16:32:20.291Z,100.00
2023-01-31T16:34:58.475Z,100.00
2023-01-31T16:37:38.165Z,100.00
2023-01-31T16:40:21.040Z,100.00
2023-01-31T16:42:50.872Z,100.00
2023-01-31T16:45:31.803Z,100.00
2023-01-31T16:48:21.968Z,100.00
2023-01-31T16:50:56.038Z,100.00
2023-01-31T16:53:31.712Z,100.00
2023-01-31T16:56:20.800Z,100.00
2023-01-31T16:58:53.984Z,100.00
2023-01-31T17:01:27.215Z,100.00
2023-01-31T17:04:09.045Z,100.00
2023-01-31T17:06:41.888Z,100.00
2023-01-31T17:09:17.047Z,100.00
2023-01-31T17:11:47.112Z,100.00
2023-01-31T17:14:16.834Z,100.00
2023-01-31T17:16:47.088Z,100.00
2023-01-31T17:19:16.739Z,100.00
2023-01-31T17:21:50.215Z,100.00
2023-01-31T17:24:22.675Z,100.00
2023-01-31T17:26:54.113Z,100.00
2023-01-31T17:29:26.026Z,100.00
2023-01-31T17:31:55.690Z,100.00
2023-01-31T17:34:25.351Z,100.00
2023-01-31T17:36:57.638Z,100.00
2023-01-31T17:39:27.256Z,100.00
2023-01-31T17:41:56.988Z,100.00
2023-01-31T17:44:26.611Z,100.00
2023-01-31T17:46:56.312Z,100.00
2023-01-31T17:49:25.983Z,100.00
2023-01-31T17:51:59.020Z,100.00
2023-01-31T17:54:29.274Z,100.00
2023-01-31T17:56:59.033Z,100.00
2023-01-31T17:59:28.755Z,100.00
2023-01-31T18:02:00.507Z,100.00
2023-01-31T18:04:30.224Z,100.00
2023-01-31T18:07:02.451Z,100.00
2023-01-31T18:09:32.081Z,100.00
2023-01-31T18:12:01.717Z,100.00
2023-01-31T18:14:31.341Z,100.00
2023-01-31T18:17:00.998Z,100.00
2023-01-31T18:19:30.601Z,100.00
2023-01-31T18:22:02.872Z,100.00
2023-01-31T18:24:33.908Z,100.00
2023-01-31T18:27:03.606Z,100.00
2023-01-31T18:29:33.267Z,99.82
2023-01-31T18:32:06.305Z,98.81
2023-01-31T18:34:36.814Z,98.77
2023-01-31T18:37:15.285Z,97.70
2023-01-31T18:39:44.910Z,97.54
2023-01-31T18:42:14.622Z,96.97
2023-01-31T18:44:44.992Z,96.62
2023-01-31T18:47:14.823Z,96.16
2023-01-31T18:49:45.112Z,95.49
2023-01-31T18:52:17.350Z,93.65
2023-01-31T18:54:49.129Z,94.43
2023-01-31T18:57:18.754Z,93.85
2023-01-31T18:59:48.407Z,93.46
2023-01-31T19:02:18.080Z,93.51
2023-01-31T19:04:47.810Z,92.64
2023-01-31T19:07:20.100Z,92.70
2023-01-31T19:09:49.720Z,92.55
2023-01-31T19:12:19.310Z,92.97
2023-01-31T19:14:48.906Z,92.77
2023-01-31T19:17:20.464Z,92.34
2023-01-31T19:19:50.113Z,91.92
2023-01-31T19:22:22.542Z,91.40
2023-01-31T19:24:52.257Z,91.81
2023-01-31T19:27:22.053Z,90.92
2023-01-31T19:29:51.931Z,91.48
2023-01-31T19:32:22.584Z,91.00
2023-01-31T19:34:54.054Z,91.86
2023-01-31T19:37:26.611Z,91.58
2023-01-31T19:39:56.413Z,91.45
2023-01-31T19:42:28.288Z,91.37
2023-01-31T19:44:58.004Z,91.16
2023-01-31T19:47:27.649Z,91.46
2023-01-31T19:49:57.297Z,91.42
2023-01-31T19:52:32.810Z,90.82
2023-01-31T19:55:02.422Z,90.86
2023-01-31T19:57:32.258Z,90.13
2023-01-31T20:00:01.916Z,90.86
2023-01-31T20:02:43.133Z,90.62
2023-01-31T20:05:14.696Z,90.34
2023-01-31T20:07:46.915Z,90.16
2023-01-31T20:10:16.635Z,90.46
2023-01-31T20:12:46.279Z,90.51
2023-01-31T20:15:15.947Z,89.99
2023-01-31T20:17:45.682Z,90.56
2023-01-31T20:20:15.298Z,90.01
2023-01-31T20:22:47.489Z,89.65
2023-01-31T20:25:17.237Z,89.50
2023-01-31T20:27:46.907Z,89.77
2023-01-31T20:30:19.123Z,89.50
2023-01-31T20:32:49.131Z,89.63
2023-01-31T20:35:19.358Z,89.40
2023-01-31T20:37:51.546Z,89.37
2023-01-31T20:40:21.657Z,90.03
2023-01-31T20:42:51.421Z,89.78
2023-01-31T20:45:21.203Z,89.70
2023-01-31T20:47:50.811Z,89.39
2023-01-31T20:50:20.851Z,89.84
2023-01-31T20:52:54.067Z,89.30
2023-01-31T20:55:24.619Z,88.96
2023-01-31T20:57:54.350Z,89.61
2023-01-31T21:00:24.918Z,89.53
2023-01-31T21:02:54.906Z,89.47
2023-01-31T21:05:24.829Z,89.17
2023-01-31T21:07:57.232Z,89.93
2023-01-31T21:10:28.820Z,90.17
2023-01-31T21:12:58.459Z,90.01
2023-01-31T21:15:28.952Z,90.68
2023-01-31T21:17:58.992Z,89.62
2023-01-31T21:20:28.613Z,89.88
2023-01-31T21:23:00.911Z,89.71
2023-01-31T21:25:31.466Z,89.09
2023-01-31T21:28:01.216Z,89.55
2023-01-31T21:30:31.137Z,89.33
2023-01-31T21:33:00.942Z,89.78
2023-01-31T21:35:30.786Z,89.46
2023-01-31T21:38:03.211Z,89.35
2023-01-31T21:40:32.961Z,88.93
2023-01-31T21:43:00.024Z,88.82
2023-01-31T21:45:42.050Z,88.18
2023-01-31T21:48:25.964Z,87.94
2023-01-31T21:50:55.629Z,87.97
2023-01-31T21:53:29.204Z,87.67
2023-01-31T21:56:03.935Z,87.53
2023-01-31T21:58:34.369Z,87.76
2023-01-31T22:01:08.495Z,87.98
2023-01-31T22:03:38.896Z,88.13
2023-01-31T22:06:10.639Z,88.00
2023-01-31T22:08:43.020Z,87.94
2023-01-31T22:11:14.069Z,87.56
2023-01-31T22:13:46.693Z,87.27
2023-01-31T22:16:17.682Z,87.02
2023-01-31T22:18:47.570Z,86.54
2023-01-31T22:21:19.603Z,86.79
2023-01-31T22:23:53.594Z,87.20
2023-01-31T22:26:25.947Z,87.17
2023-01-31T22:28:57.755Z,87.14
2023-01-31T22:31:28.048Z,86.21
2023-01-31T22:34:00.198Z,86.11
2023-01-31T22:36:30.287Z,86.00
2023-01-31T22:39:02.625Z,86.00
2023-01-31T22:41:32.300Z,85.38
2023-01-31T22:44:01.901Z,86.15
2023-01-31T22:46:32.138Z,86.18
2023-01-31T22:49:01.809Z,85.74
2023-01-31T22:51:31.981Z,85.94
2023-01-31T22:54:04.232Z,85.61
2023-01-31T22:56:34.652Z,85.79
2023-01-31T22:59:06.496Z,85.39
2023-01-31T23:01:38.237Z,85.54
2023-01-31T23:04:13.368Z,85.58
2023-01-31T23:06:42.981Z,85.85
2023-01-31T23:09:15.183Z,85.98
2023-01-31T23:11:44.790Z,85.66
2023-01-31T23:14:14.417Z,85.42
2023-01-31T23:16:56.562Z,85.90
2023-01-31T23:19:26.180Z,85.67
2023-01-31T23:21:55.771Z,84.89
2023-01-31T23:24:27.954Z,85.59
2023-01-31T23:26:57.760Z,86.06
2023-01-31T23:29:27.378Z,85.87
2023-01-31T23:31:57.030Z,86.05
2023-01-31T23:34:26.841Z,86.83
2023-01-31T23:36:56.614Z,86.20
2023-01-31T23:39:28.790Z,86.16
2023-01-31T23:41:58.381Z,86.57
2023-01-31T23:44:28.015Z,85.60
2023-01-31T23:46:57.996Z,86.08
2023-01-31T23:49:27.626Z,86.81
2023-01-31T23:51:57.510Z,87.07
2023-01-31T23:54:29.759Z,87.23
2023-01-31T23:56:59.364Z,87.54
2023-01-31T23:59:29.365Z,86.57
